Whitmore, California
Current Conditions -  °F | °C
As of 7:53 AM on Thursday 23 Oct 2014 (Local Time) from KRDD Reporting Station
Light Rain Light Rain  
Wind Chill: 56°   Ceiling: 9500
Heat Index: 56°   Visibility: 10mi
Dew Point: 55°   Wind: 0mph
Humidity: 97%   Direction: NA
Pressure: 30.03"   Gusts: NA
Location:  40.63°N, 121.92°W
Report Text: KRDD 231453Z 00000KT 10SM -RA OVC095 13/13 A3003 RMK AO2 SLP167 P0001 60003 T01330128 53009
Loading
Personal Weather Stations






























Interactive Weather Map
Tropical Storm Tracking
New forecast layout! Learn more

10-Day Weather Forecast

Advertisements
Track Severe Weather on mobile